createdAt,value
2023-08-22T00:02:20.735Z,61.53
2023-08-22T00:04:47.909Z,61.40
2023-08-22T00:07:14.782Z,61.38
2023-08-22T00:09:41.330Z,61.23
2023-08-22T00:12:08.064Z,61.58
2023-08-22T00:14:34.649Z,61.61
2023-08-22T00:17:01.281Z,61.40
2023-08-22T00:19:30.248Z,61.43
2023-08-22T00:21:57.259Z,61.20
2023-08-22T00:24:24.825Z,61.56
2023-08-22T00:26:51.398Z,61.36
2023-08-22T00:29:18.004Z,61.41
2023-08-22T00:31:44.571Z,61.54
2023-08-22T00:34:11.170Z,61.48
2023-08-22T00:36:37.742Z,61.63
2023-08-22T00:39:04.391Z,61.46
2023-08-22T00:41:31.055Z,61.42
2023-08-22T00:43:57.619Z,61.68
2023-08-22T00:46:25.601Z,61.57
2023-08-22T00:48:52.171Z,61.27
2023-08-22T00:51:18.898Z,61.42
2023-08-22T00:53:45.546Z,61.38
2023-08-22T00:56:12.066Z,61.62
2023-08-22T00:58:38.847Z,61.33
2023-08-22T01:01:05.726Z,61.31
2023-08-22T01:03:32.400Z,61.25
2023-08-22T01:06:37.173Z,61.76
2023-08-22T01:09:20.102Z,61.38
2023-08-22T01:11:48.904Z,61.71
2023-08-22T01:14:18.446Z,61.88
2023-08-22T01:16:45.211Z,61.71
2023-08-22T01:19:12.372Z,61.95
2023-08-22T01:21:50.902Z,61.85
2023-08-22T01:24:17.608Z,62.03
2023-08-22T01:26:45.587Z,61.95
2023-08-22T01:29:13.194Z,61.90
2023-08-22T01:32:00.037Z,61.73
2023-08-22T01:34:30.630Z,62.17
2023-08-22T01:36:57.264Z,62.02
2023-08-22T01:39:24.081Z,61.98
2023-08-22T01:41:50.637Z,61.97
2023-08-22T01:44:17.221Z,62.18
2023-08-22T01:46:43.803Z,61.82
2023-08-22T01:49:10.377Z,61.90
2023-08-22T01:51:36.905Z,62.00
2023-08-22T01:54:03.485Z,62.28
2023-08-22T01:56:30.084Z,62.14
2023-08-22T01:58:56.642Z,62.15
2023-08-22T02:01:24.667Z,62.10
2023-08-22T02:03:51.533Z,62.64
2023-08-22T02:06:18.177Z,62.38
2023-08-22T02:08:44.688Z,62.09
2023-08-22T02:11:11.249Z,62.40
2023-08-22T02:13:37.781Z,62.59
2023-08-22T02:16:04.631Z,62.38
2023-08-22T02:18:31.259Z,62.18
2023-08-22T02:20:58.057Z,62.44
2023-08-22T02:23:24.913Z,62.31
2023-08-22T02:25:51.445Z,62.67
2023-08-22T02:28:18.018Z,62.66
2023-08-22T02:30:44.530Z,62.39
2023-08-22T02:33:11.114Z,62.69
2023-08-22T02:35:37.727Z,62.54
2023-08-22T02:38:04.694Z,62.37
2023-08-22T02:40:31.272Z,62.38
2023-08-22T02:42:57.804Z,62.84
2023-08-22T02:45:24.399Z,62.50
2023-08-22T02:47:51.022Z,62.43
2023-08-22T02:50:17.697Z,62.83
2023-08-22T02:52:44.250Z,62.57
2023-08-22T02:55:10.829Z,63.00
2023-08-22T02:57:37.372Z,62.51
2023-08-22T03:00:06.016Z,62.67
2023-08-22T03:02:33.211Z,62.58
2023-08-22T03:04:59.852Z,62.60
2023-08-22T03:07:26.406Z,63.14
2023-08-22T03:09:52.938Z,62.73
2023-08-22T03:12:19.439Z,63.16
2023-08-22T03:14:46.038Z,62.79
2023-08-22T03:17:13.265Z,62.99
2023-08-22T03:19:39.850Z,63.16
2023-08-22T03:22:06.428Z,63.02
2023-08-22T03:24:33.056Z,63.28
2023-08-22T03:26:59.833Z,62.79
2023-08-22T03:29:26.558Z,63.23
2023-08-22T03:31:53.112Z,63.23
2023-08-22T03:34:19.659Z,62.86
2023-08-22T03:36:46.217Z,62.88
2023-08-22T03:39:12.753Z,62.96
2023-08-22T03:41:39.277Z,62.97
2023-08-22T03:44:06.186Z,63.03
2023-08-22T03:46:38.935Z,63.33
2023-08-22T03:49:06.076Z,63.15
2023-08-22T03:51:32.684Z,63.24
2023-08-22T03:53:59.224Z,63.24
2023-08-22T03:56:25.816Z,63.27
2023-08-22T03:58:52.353Z,63.20
2023-08-22T04:01:18.923Z,63.25
2023-08-22T04:03:45.530Z,63.46
2023-08-22T04:06:12.098Z,63.18
2023-08-22T04:08:38.617Z,63.32
2023-08-22T04:11:05.201Z,63.21
2023-08-22T04:13:31.761Z,63.30
2023-08-22T04:16:01.435Z,62.95
2023-08-22T04:18:28.000Z,63.26
2023-08-22T04:20:54.556Z,63.17
2023-08-22T04:23:21.415Z,63.12
2023-08-22T04:25:47.991Z,63.44
2023-08-22T04:28:15.034Z,63.44
2023-08-22T04:30:43.947Z,63.36
2023-08-22T04:33:10.593Z,62.95
2023-08-22T04:35:38.575Z,62.95
2023-08-22T04:38:05.607Z,63.24
2023-08-22T04:40:32.138Z,63.36
2023-08-22T04:42:58.690Z,63.32
2023-08-22T04:45:25.216Z,63.17
2023-08-22T04:47:51.813Z,63.24
2023-08-22T04:50:18.435Z,63.11
2023-08-22T04:52:44.963Z,63.32
2023-08-22T04:55:11.563Z,62.85
2023-08-22T04:57:38.134Z,63.29
2023-08-22T05:00:05.396Z,62.99
2023-08-22T05:02:31.931Z,62.82
2023-08-22T05:04:58.480Z,63.38
2023-08-22T05:07:25.075Z,62.86
2023-08-22T05:09:51.591Z,62.78
2023-08-22T05:12:18.098Z,63.20
2023-08-22T05:14:44.755Z,63.41
2023-08-22T05:17:11.442Z,63.16
2023-08-22T05:19:38.076Z,62.98
2023-08-22T05:22:04.636Z,63.01
2023-08-22T05:24:31.163Z,63.78
2023-08-22T05:26:57.776Z,63.36
2023-08-22T05:29:24.324Z,63.61
2023-08-22T05:31:50.929Z,63.89
2023-08-22T05:34:17.561Z,64.24
2023-08-22T05:36:44.202Z,64.29
2023-08-22T05:39:11.992Z,64.01
2023-08-22T05:41:38.618Z,64.25
2023-08-22T05:44:05.407Z,64.33
2023-08-22T05:46:32.052Z,63.85
2023-08-22T05:48:58.646Z,63.78
2023-08-22T05:51:25.178Z,64.36
2023-08-22T05:53:52.004Z,64.18
2023-08-22T05:56:18.516Z,64.16
2023-08-22T05:58:45.044Z,64.26
2023-08-22T06:01:11.716Z,64.34
2023-08-22T06:03:39.183Z,64.17
2023-08-22T06:06:06.016Z,64.24
2023-08-22T06:08:32.552Z,64.15
2023-08-22T06:10:59.080Z,63.99
2023-08-22T06:13:25.596Z,64.20
2023-08-22T06:15:52.208Z,64.20
2023-08-22T06:18:18.736Z,64.01
2023-08-22T06:20:45.421Z,64.09
2023-08-22T06:23:12.044Z,63.98
2023-08-22T06:25:38.655Z,64.16
2023-08-22T06:28:05.385Z,64.14
2023-08-22T06:30:32.237Z,64.15
2023-08-22T06:33:00.047Z,64.17
2023-08-22T06:35:26.681Z,64.21
2023-08-22T06:37:53.253Z,64.45
2023-08-22T06:40:19.782Z,64.25
2023-08-22T06:42:46.310Z,64.32
2023-08-22T06:45:12.883Z,64.69
2023-08-22T06:47:40.033Z,65.01
2023-08-22T06:50:07.436Z,64.67
2023-08-22T06:52:34.019Z,64.46
2023-08-22T06:55:01.640Z,64.72
2023-08-22T06:57:28.175Z,64.48
2023-08-22T06:59:54.715Z,64.38
2023-08-22T07:02:21.274Z,64.59
2023-08-22T07:04:49.248Z,64.74
2023-08-22T07:07:15.876Z,64.88
2023-08-22T07:09:42.461Z,64.86
2023-08-22T07:12:09.152Z,64.51
2023-08-22T07:14:38.028Z,64.80
2023-08-22T07:17:04.583Z,64.87
2023-08-22T07:19:40.389Z,64.71
2023-08-22T07:22:08.671Z,65.18
2023-08-22T07:24:35.228Z,64.97
2023-08-22T07:27:01.800Z,65.19
2023-08-22T07:29:28.391Z,64.81
2023-08-22T07:31:59.279Z,64.85
2023-08-22T07:34:26.177Z,65.19
2023-08-22T07:36:53.366Z,65.18
2023-08-22T07:39:21.579Z,64.92
2023-08-22T07:41:48.315Z,65.49
2023-08-22T07:44:15.130Z,65.46
2023-08-22T07:46:41.780Z,65.30
2023-08-22T07:49:08.690Z,65.33
2023-08-22T07:51:37.417Z,65.46
2023-08-22T07:54:04.714Z,65.37
2023-08-22T07:56:31.266Z,65.20
2023-08-22T07:58:58.138Z,65.37
2023-08-22T08:01:24.711Z,65.25
2023-08-22T08:03:51.433Z,64.81
2023-08-22T08:06:19.509Z,64.98
2023-08-22T08:08:46.302Z,64.97
2023-08-22T08:11:13.127Z,65.09
2023-08-22T08:13:39.720Z,64.90
2023-08-22T08:16:07.869Z,64.72
2023-08-22T08:18:35.002Z,65.04
2023-08-22T08:21:01.603Z,65.01
2023-08-22T08:23:28.335Z,64.96
2023-08-22T08:25:54.855Z,65.16
2023-08-22T08:28:21.393Z,64.73
2023-08-22T08:30:47.957Z,65.14
2023-08-22T08:33:14.593Z,65.10
2023-08-22T08:35:41.210Z,64.66
2023-08-22T08:38:07.745Z,64.72
2023-08-22T08:40:37.329Z,64.62
2023-08-22T08:43:04.741Z,65.12
2023-08-22T08:45:31.379Z,64.94
2023-08-22T08:47:59.825Z,64.84
2023-08-22T08:50:27.048Z,65.38
2023-08-22T08:52:53.629Z,65.23
2023-08-22T08:55:20.195Z,65.18
2023-08-22T08:57:48.178Z,65.26
2023-08-22T09:00:18.070Z,64.90
2023-08-22T09:02:45.681Z,64.94
2023-08-22T09:05:12.685Z,64.76
2023-08-22T09:07:39.368Z,64.74
2023-08-22T09:10:09.047Z,64.73
2023-08-22T09:12:36.770Z,64.84
2023-08-22T09:15:03.905Z,64.61
2023-08-22T09:17:30.831Z,64.91
2023-08-22T09:19:57.429Z,64.87
2023-08-22T09:22:29.761Z,64.38
2023-08-22T09:24:56.313Z,64.43
2023-08-22T09:27:25.495Z,64.58
2023-08-22T09:29:52.210Z,64.44
2023-08-22T09:32:21.111Z,64.39
2023-08-22T09:34:54.800Z,64.20
2023-08-22T09:37:34.081Z,64.68
2023-08-22T09:40:01.379Z,64.73
2023-08-22T09:42:31.107Z,64.57
2023-08-22T09:44:58.123Z,64.70
2023-08-22T09:47:33.927Z,64.35
2023-08-22T09:50:01.325Z,64.73
2023-08-22T09:52:28.591Z,64.66
2023-08-22T09:54:55.154Z,64.27
2023-08-22T09:57:22.191Z,64.16
2023-08-22T09:59:48.777Z,64.29
2023-08-22T10:02:15.856Z,64.62
2023-08-22T10:04:42.517Z,64.62
2023-08-22T10:07:09.681Z,64.25
2023-08-22T10:09:36.280Z,64.37
2023-08-22T10:12:03.679Z,64.33
2023-08-22T10:14:32.355Z,64.61
2023-08-22T10:16:59.134Z,64.40
2023-08-22T10:19:26.233Z,64.22
2023-08-22T10:21:54.329Z,64.37
2023-08-22T10:24:33.449Z,64.33
2023-08-22T10:27:05.302Z,64.21
2023-08-22T10:29:42.790Z,64.68
2023-08-22T10:32:09.448Z,63.91
2023-08-22T10:34:35.888Z,63.71
2023-08-22T10:37:03.233Z,64.00
2023-08-22T10:39:48.733Z,63.97
2023-08-22T10:42:21.772Z,64.51
2023-08-22T10:44:51.762Z,64.46
2023-08-22T10:47:22.282Z,64.54
2023-08-22T10:50:07.011Z,64.47
2023-08-22T10:52:37.616Z,64.18
2023-08-22T10:55:04.419Z,64.29
2023-08-22T10:57:32.610Z,64.32
2023-08-22T11:00:13.642Z,63.94
2023-08-22T11:02:41.327Z,64.23
2023-08-22T11:05:12.287Z,64.16
2023-08-22T11:23:09.252Z,58.85
2023-08-22T11:25:37.494Z,57.40
2023-08-22T11:28:04.870Z,56.30
2023-08-22T11:30:31.414Z,55.26
2023-08-22T11:32:57.943Z,54.05
2023-08-22T11:35:24.519Z,53.17
2023-08-22T11:37:51.295Z,52.95
2023-08-22T11:40:18.570Z,51.46
2023-08-22T11:42:47.666Z,51.88
2023-08-22T11:45:16.121Z,51.41
2023-08-22T11:47:46.888Z,50.92
2023-08-22T11:50:26.788Z,49.91
2023-08-22T11:52:54.593Z,49.07
2023-08-22T11:55:27.950Z,48.95
2023-08-22T11:57:58.205Z,48.70
2023-08-22T12:00:26.474Z,48.66
2023-08-22T12:02:53.991Z,48.16
2023-08-22T12:05:36.490Z,47.91
2023-08-22T12:08:11.998Z,47.74
2023-08-22T12:10:51.179Z,47.79
2023-08-22T12:13:21.798Z,47.36
2023-08-22T12:15:48.780Z,46.91
2023-08-22T12:18:15.615Z,46.48
2023-08-22T12:20:43.530Z,46.97
2023-08-22T12:23:13.235Z,46.17
2023-08-22T12:25:43.422Z,46.06
2023-08-22T12:28:11.182Z,46.12
2023-08-22T12:30:39.339Z,45.94
2023-08-22T12:33:06.543Z,45.78
2023-08-22T12:35:33.777Z,45.57
2023-08-22T12:38:00.580Z,45.68
2023-08-22T12:40:27.182Z,45.43
2023-08-22T12:42:53.936Z,44.79
2023-08-22T12:45:21.247Z,45.21
2023-08-22T12:47:49.875Z,45.73
2023-08-22T12:50:16.517Z,46.25
2023-08-22T12:52:43.124Z,46.08
2023-08-22T12:55:09.963Z,46.08
2023-08-22T12:57:36.929Z,45.62
2023-08-22T13:00:04.004Z,45.59
2023-08-22T13:02:30.616Z,45.03
2023-08-22T13:12:31.340Z,46.45
2023-08-22T13:14:57.872Z,46.33
2023-08-22T13:17:24.429Z,46.22
2023-08-22T13:19:51.006Z,45.79
2023-08-22T13:22:17.516Z,45.66
2023-08-22T13:24:44.074Z,44.56
2023-08-22T13:27:10.639Z,45.18
2023-08-22T13:29:37.368Z,45.38
2023-08-22T13:32:04.112Z,46.10
2023-08-22T13:34:30.649Z,45.90
2023-08-22T13:36:57.264Z,45.89
2023-08-22T13:39:23.806Z,45.41
2023-08-22T13:41:50.331Z,44.20
2023-08-22T13:44:16.981Z,44.78
2023-08-22T13:46:43.763Z,45.23
2023-08-22T13:49:10.368Z,45.73
2023-08-22T13:51:36.942Z,45.77
2023-08-22T13:54:04.374Z,45.57
2023-08-22T13:56:31.818Z,45.32
2023-08-22T14:06:35.223Z,46.80
2023-08-22T14:09:04.866Z,47.05
2023-08-22T14:11:36.300Z,47.18
2023-08-22T14:21:47.008Z,45.54
2023-08-22T14:24:15.191Z,45.15
2023-08-22T14:26:41.752Z,44.91
2023-08-22T14:29:08.561Z,44.82
2023-08-22T14:31:35.211Z,44.37
2023-08-22T14:34:01.846Z,44.25
2023-08-22T14:36:28.443Z,44.21
2023-08-22T14:38:55.023Z,44.03
2023-08-22T14:41:21.565Z,43.96
2023-08-22T14:43:48.077Z,43.77
2023-08-22T14:46:14.731Z,43.85
2023-08-22T14:48:41.294Z,43.57
2023-08-22T14:51:07.858Z,43.50
2023-08-22T14:53:34.550Z,43.16
2023-08-22T14:56:02.328Z,43.30
2023-08-22T14:58:38.327Z,42.90
2023-08-22T15:01:04.909Z,44.02
2023-08-22T15:03:31.438Z,45.25
2023-08-22T15:05:57.962Z,45.58
2023-08-22T15:08:24.495Z,46.02
2023-08-22T15:10:52.040Z,45.44
2023-08-22T15:13:18.687Z,44.73
2023-08-22T15:15:46.506Z,44.19
2023-08-22T15:18:13.408Z,43.74
2023-08-22T15:20:40.085Z,43.51
2023-08-22T15:23:08.456Z,43.19
2023-08-22T15:25:37.530Z,44.29
2023-08-22T15:28:04.292Z,45.54
2023-08-22T15:30:30.908Z,45.66
2023-08-22T15:32:57.563Z,46.09
2023-08-22T15:35:24.493Z,45.54
2023-08-22T15:37:51.070Z,44.67
2023-08-22T15:40:17.652Z,44.50
2023-08-22T15:42:44.205Z,43.74
2023-08-22T15:45:11.415Z,43.13
2023-08-22T15:47:38.130Z,42.82
2023-08-22T15:50:07.011Z,42.64
2023-08-22T15:52:40.918Z,42.29
2023-08-22T15:55:08.434Z,42.38
2023-08-22T15:57:35.056Z,44.78
2023-08-22T16:00:01.665Z,45.07
2023-08-22T16:02:28.256Z,45.68
2023-08-22T16:04:56.171Z,45.18
2023-08-22T16:07:22.709Z,44.60
2023-08-22T16:09:49.281Z,44.28
2023-08-22T16:12:16.533Z,44.11
2023-08-22T16:14:43.200Z,43.54
2023-08-22T16:17:09.715Z,43.65
2023-08-22T16:19:36.279Z,43.94
2023-08-22T16:22:02.841Z,43.63
2023-08-22T16:24:29.447Z,43.63
2023-08-22T16:26:56.002Z,43.45
2023-08-22T16:29:22.563Z,43.37
2023-08-22T16:31:49.141Z,43.43
2023-08-22T16:34:16.439Z,43.22
2023-08-22T16:36:43.371Z,43.29
2023-08-22T16:39:11.142Z,43.36
2023-08-22T16:41:37.822Z,43.06
2023-08-22T16:44:05.592Z,42.96
2023-08-22T16:46:34.921Z,42.83
2023-08-22T16:49:01.545Z,42.94
2023-08-22T16:51:28.194Z,42.70
2023-08-22T16:53:54.792Z,42.86
2023-08-22T16:56:21.323Z,42.88
2023-08-22T16:58:55.954Z,42.84
2023-08-22T17:01:33.800Z,42.68
2023-08-22T17:04:00.756Z,42.45
2023-08-22T17:06:27.295Z,42.28
2023-08-22T17:08:53.920Z,42.68
2023-08-22T17:11:20.542Z,42.46
2023-08-22T17:13:47.077Z,42.30
2023-08-22T17:16:13.664Z,42.71
2023-08-22T17:18:40.395Z,43.20
2023-08-22T17:21:11.954Z,43.08
2023-08-22T17:23:39.254Z,43.58
2023-08-22T17:26:12.022Z,43.88
2023-08-22T17:28:38.737Z,43.55
2023-08-22T17:31:08.484Z,42.65
2023-08-22T17:33:40.276Z,43.28
2023-08-22T17:36:09.252Z,43.21
2023-08-22T17:38:36.216Z,43.48
2023-08-22T17:41:05.978Z,43.83
2023-08-22T17:43:33.779Z,43.05
2023-08-22T17:46:03.159Z,43.10
2023-08-22T17:48:30.091Z,43.62
2023-08-22T17:50:57.107Z,43.94
2023-08-22T17:53:23.825Z,43.91
2023-08-22T17:55:53.485Z,43.09
2023-08-22T17:58:21.100Z,42.98
2023-08-22T18:00:51.710Z,43.38
2023-08-22T18:03:18.812Z,43.56
2023-08-22T18:05:55.579Z,43.88
2023-08-22T18:08:22.637Z,43.18
2023-08-22T18:10:49.319Z,42.96
2023-08-22T18:13:15.851Z,43.39
2023-08-22T18:15:42.369Z,43.42
2023-08-22T18:18:08.964Z,43.76
2023-08-22T18:20:35.544Z,43.85
2023-08-22T18:23:02.078Z,43.08
2023-08-22T18:25:28.658Z,42.26
2023-08-22T18:27:55.231Z,41.71
2023-08-22T18:30:21.882Z,42.46
2023-08-22T18:32:48.425Z,42.90
2023-08-22T18:35:15.145Z,43.28
2023-08-22T18:37:41.690Z,43.33
2023-08-22T18:40:08.816Z,42.89
2023-08-22T18:42:35.360Z,42.15
2023-08-22T18:45:01.917Z,41.41
2023-08-22T18:47:28.480Z,41.69
2023-08-22T18:49:59.439Z,42.42
2023-08-22T18:52:26.039Z,42.64
2023-08-22T18:54:52.818Z,43.09
2023-08-22T18:57:19.382Z,42.79
2023-08-22T18:59:45.899Z,42.50
2023-08-22T19:02:12.417Z,42.89
2023-08-22T19:04:39.515Z,43.15
2023-08-22T19:07:06.154Z,43.48
2023-08-22T19:09:32.669Z,42.86
2023-08-22T19:11:59.260Z,42.94
2023-08-22T19:14:25.875Z,43.28
2023-08-22T19:16:52.418Z,43.53
2023-08-22T19:19:19.050Z,43.80
2023-08-22T19:21:45.587Z,43.69
2023-08-22T19:24:12.119Z,43.28
2023-08-22T19:26:39.754Z,43.64
2023-08-22T19:29:07.487Z,43.64
2023-08-22T19:31:34.119Z,45.37
2023-08-22T19:34:00.729Z,44.70
2023-08-22T19:36:27.349Z,43.75
2023-08-22T19:38:55.009Z,43.53
2023-08-22T19:41:24.422Z,43.75
2023-08-22T19:43:51.349Z,44.18
2023-08-22T19:46:17.938Z,44.04
2023-08-22T19:48:44.512Z,43.35
2023-08-22T19:51:11.095Z,43.35
2023-08-22T19:53:38.572Z,43.51
2023-08-22T19:56:05.420Z,43.62
2023-08-22T19:58:31.949Z,43.96
2023-08-22T20:00:58.808Z,43.49
2023-08-22T20:03:25.460Z,42.96
2023-08-22T20:05:58.086Z,43.33
2023-08-22T20:08:24.679Z,43.60
2023-08-22T20:10:51.249Z,43.88
2023-08-22T20:13:19.994Z,43.71
2023-08-22T20:15:48.796Z,42.97
2023-08-22T20:18:15.628Z,42.91
2023-08-22T20:20:42.241Z,43.29
2023-08-22T20:23:08.860Z,43.59
2023-08-22T20:25:37.507Z,43.83
2023-08-22T20:28:04.605Z,42.96
2023-08-22T20:30:31.303Z,43.13
2023-08-22T20:32:58.514Z,43.34
2023-08-22T20:35:25.148Z,43.54
2023-08-22T20:37:51.731Z,43.82
2023-08-22T20:40:18.318Z,43.50
2023-08-22T20:42:47.988Z,42.39
2023-08-22T20:45:14.538Z,42.94
2023-08-22T20:47:42.116Z,43.35
2023-08-22T20:50:10.126Z,43.57
2023-08-22T20:52:36.719Z,43.81
2023-08-22T20:55:03.685Z,42.92
2023-08-22T20:57:30.262Z,42.39
2023-08-22T20:59:57.976Z,43.12
2023-08-22T21:02:24.544Z,43.45
2023-08-22T21:04:51.123Z,43.47
2023-08-22T21:07:19.311Z,43.63
2023-08-22T21:09:46.184Z,43.01
2023-08-22T21:12:12.766Z,42.86
2023-08-22T21:14:39.315Z,43.30
2023-08-22T21:17:05.913Z,43.44
2023-08-22T21:19:32.480Z,43.65
2023-08-22T21:21:59.032Z,43.24
2023-08-22T21:24:41.698Z,42.70
2023-08-22T21:27:08.625Z,42.98
2023-08-22T21:29:35.178Z,43.24
2023-08-22T21:32:01.781Z,43.64
2023-08-22T21:34:28.381Z,43.57
2023-08-22T21:36:54.956Z,42.85
2023-08-22T21:39:21.534Z,42.87
2023-08-22T21:41:48.040Z,43.10
2023-08-22T21:44:14.585Z,43.42
2023-08-22T21:46:41.114Z,43.61
2023-08-22T21:49:08.012Z,43.34
2023-08-22T21:51:34.619Z,42.79
2023-08-22T21:54:01.128Z,43.31
2023-08-22T21:56:27.667Z,43.38
2023-08-22T21:58:54.202Z,43.70
2023-08-22T22:01:20.801Z,43.22
2023-08-22T22:03:47.418Z,43.03
2023-08-22T22:06:14.071Z,43.27
2023-08-22T22:08:40.654Z,43.36
2023-08-22T22:11:07.175Z,43.81
2023-08-22T22:13:33.762Z,43.17
2023-08-22T22:16:00.362Z,42.61
2023-08-22T22:18:26.996Z,43.13
2023-08-22T22:21:00.535Z,43.41
2023-08-22T22:23:27.160Z,43.79
2023-08-22T22:26:06.257Z,43.25
2023-08-22T22:28:34.722Z,42.58
2023-08-22T22:31:01.343Z,42.92
2023-08-22T22:33:27.885Z,43.18
2023-08-22T22:35:54.544Z,43.41
2023-08-22T22:38:21.102Z,43.45
2023-08-22T22:40:47.843Z,42.71
2023-08-22T22:43:14.407Z,43.11
2023-08-22T22:45:41.223Z,43.31
2023-08-22T22:48:10.811Z,43.46
2023-08-22T22:50:37.893Z,43.44
2023-08-22T22:53:05.021Z,42.61
2023-08-22T22:55:31.550Z,43.02
2023-08-22T22:57:58.988Z,43.33
2023-08-22T23:00:25.781Z,43.64
2023-08-22T23:02:55.295Z,43.48
2023-08-22T23:05:21.921Z,42.52
2023-08-22T23:07:48.594Z,43.09
2023-08-22T23:10:15.655Z,43.15
2023-08-22T23:12:42.849Z,43.50
2023-08-22T23:15:09.694Z,43.36
2023-08-22T23:17:37.323Z,42.75
2023-08-22T23:20:10.775Z,42.92
2023-08-22T23:22:37.803Z,43.32
2023-08-22T23:25:05.328Z,43.48
2023-08-22T23:27:32.862Z,43.12
2023-08-22T23:30:00.192Z,43.04
2023-08-22T23:32:28.322Z,43.19
2023-08-22T23:34:58.099Z,43.55
2023-08-22T23:37:24.734Z,43.61
2023-08-22T23:39:51.571Z,43.09
2023-08-22T23:42:21.676Z,42.77
2023-08-22T23:44:48.768Z,43.12
2023-08-22T23:47:15.702Z,43.21
2023-08-22T23:49:42.342Z,43.46
2023-08-22T23:52:08.925Z,42.56
2023-08-22T23:54:35.462Z,42.81
2023-08-22T23:57:02.014Z,43.00
2023-08-22T23:59:29.037Z,43.09
